Terminal Aerodrome Forecast
Issued by NWS Cleveland, OH

Home | Current Version | Previous Version | Text Only | Print | Product List | Glossary On
Versions: 1 2 3 4 5 6 7 8 9 10 11 12 13 14 15
000
FTUS41 KCLE 230541
TAFTOL
TAF
KTOL 230541Z 2306/2406 21010KT P6SM BKN035
     FM230700 21010KT P6SM BKN025 OVC060
     FM231000 22012KT P6SM -SHRA VCTS BKN015CB OVC025
      TEMPO 2310/2314 5SM -SHRA OVC008
     FM231400 24012KT 4SM -SHRA VCTS BKN010CB OVC025
      TEMPO 2314/2318 1SM TSRA OVC005CB
     FM232000 29008KT P6SM BKN025 OVC045=

USA.gov is the U.S. government's official web portal to all federal, state and local government web resources and services.